»·PEaware :: N512WB KSMX-KBFL

N512WB :: KSMX-KBFL

FLIGHT INFORMATION

Flight Status: Arrived
Operator: Privately registered:
United States
More flights under this callsign
Pilot: Gregory M. (37945)
Aircraft: CESSNA 172 SKYHAWK
(C172)
More flights by this aircraft type
Origin: KSMX Santa Maria Pub/Capt Hancock
United States
Destination: KBFL Meadows
United States
More flights between these airports :: More routes between these airports
Route:
File this flight plan on PilotEdge
Remarks:
Altitude:
(Current/Filed)
7,500ft
Speed:
(Current/Filed)
120kts
Departed: 21-Jan-22 09:53 PM
Arrived: 21-Jan-22 10:47 PM
Distance/Time
Traveled:
76nm/0:54
Distance/Time
To Go:
Arrived

Flight Plot

Page will automatically refresh every two minutes.


Map Options




Map Legend


Flown Route
Filed Route
Departure Airport
Arrival Airport
Navaid (VOR, NDB)
Fix

Horizontal Profiles

Position Reports

Time Latitude Longitude Heading Altitude Ground
Speed
21-Jan-22 21:26 34.896951 -120.446159 273 265ft 0kts
21-Jan-22 21:27 34.896951 -120.446159 273 265ft 0kts
21-Jan-22 21:28 34.896951 -120.446159 273 265ft 0kts
21-Jan-22 21:30 34.896951 -120.446159 273 265ft 0kts
21-Jan-22 21:30 34.896951 -120.446159 273 265ft 0kts
21-Jan-22 21:31 34.896951 -120.446159 273 265ft 0kts
21-Jan-22 21:32 34.896951 -120.446159 273 265ft 0kts
21-Jan-22 21:33 34.896951 -120.446159 273 265ft 0kts
21-Jan-22 21:34 34.896951 -120.446159 273 265ft 0kts
21-Jan-22 21:35 34.896951 -120.446159 273 265ft 0kts
21-Jan-22 21:36 34.896951 -120.446159 273 265ft 0kts
21-Jan-22 21:37 34.896951 -120.446159 273 265ft 0kts
21-Jan-22 21:38 34.896951 -120.446159 273 265ft 0kts
21-Jan-22 21:39 34.896951 -120.446159 273 265ft 0kts
21-Jan-22 21:40 34.896951 -120.446159 273 265ft 0kts
21-Jan-22 21:41 34.896951 -120.446159 273 265ft 0kts
21-Jan-22 21:42 34.896952 -120.446172 272 265ft 0kts
21-Jan-22 21:43 34.896952 -120.446172 272 265ft 0kts
21-Jan-22 21:44 34.896952 -120.446172 272 265ft 0kts
21-Jan-22 21:45 34.896952 -120.446172 272 265ft 0kts
21-Jan-22 21:46 34.896952 -120.446172 272 265ft 0kts
21-Jan-22 21:47 34.896952 -120.446172 272 265ft 0kts
21-Jan-22 21:48 34.896952 -120.446172 272 265ft 0kts
21-Jan-22 21:49 34.894973 -120.445971 133 265ft 24kts
21-Jan-22 21:50 34.893407 -120.445236 219 265ft 0kts
21-Jan-22 21:51 34.893367 -120.445270 210 265ft 4kts
21-Jan-22 21:52 34.900860 -120.457174 315 777ft 66kts
21-Jan-22 21:53 34.915072 -120.466831 46 1693ft 70kts
21-Jan-22 21:54 34.914298 -120.440526 91 2598ft 84kts
21-Jan-22 21:55 34.916080 -120.412949 68 3496ft 80kts
21-Jan-22 21:56 34.923157 -120.388049 62 4387ft 75kts
21-Jan-22 21:57 34.930280 -120.365906 60 5268ft 63kts
21-Jan-22 21:58 34.936498 -120.351706 11 6003ft 41kts
21-Jan-22 21:59 34.941382 -120.338995 46 6547ft 44kts
21-Jan-22 22:00 34.945925 -120.316424 60 6745ft 98kts
21-Jan-22 22:01 34.956672 -120.285241 61 7109ft 99kts
21-Jan-22 22:02 34.966934 -120.254096 61 7496ft 98kts
21-Jan-22 22:03 34.977846 -120.220846 61 7567ft 112kts
21-Jan-22 22:04 34.989556 -120.184955 61 7566ft 114kts
21-Jan-22 22:05 35.001285 -120.149038 61 7566ft 114kts
21-Jan-22 22:06 35.013060 -120.112950 61 7566ft 114kts
21-Jan-22 22:07 35.024916 -120.076587 62 7565ft 116kts
21-Jan-22 22:08 35.036817 -120.040020 62 7566ft 116kts
21-Jan-22 22:09 35.048689 -120.003503 62 7565ft 116kts
21-Jan-22 22:10 35.060556 -119.966952 62 7565ft 116kts
21-Jan-22 22:11 35.072432 -119.930335 62 7565ft 116kts
21-Jan-22 22:12 35.084386 -119.893728 61 7565ft 115kts
21-Jan-22 22:13 35.097168 -119.857957 56 7565ft 114kts
21-Jan-22 22:14 35.111854 -119.823346 56 7534ft 116kts
21-Jan-22 22:15 35.126600 -119.788758 56 7528ft 114kts
21-Jan-22 22:16 35.141259 -119.754418 56 7528ft 114kts
21-Jan-22 22:17 35.155930 -119.720028 56 7528ft 114kts
21-Jan-22 22:18 35.170564 -119.685686 56 7528ft 114kts
21-Jan-22 22:19 35.185162 -119.651397 56 7528ft 113kts
21-Jan-22 22:20 35.199773 -119.617054 56 7528ft 114kts
21-Jan-22 22:21 35.214411 -119.582308 57 7528ft 115kts
21-Jan-22 22:22 35.229347 -119.546332 57 7179ft 132kts
21-Jan-22 22:23 35.246107 -119.506370 58 5977ft 120kts
21-Jan-22 22:24 35.260218 -119.472975 58 4766ft 106kts
21-Jan-22 22:25 35.273728 -119.441034 58 3566ft 106kts
21-Jan-22 22:26 35.287342 -119.408782 59 2359ft 107kts
21-Jan-22 22:27 35.300569 -119.377356 59 1504ft 82kts
21-Jan-22 22:28 35.299157 -119.358400 153 1424ft 71kts
21-Jan-22 22:29 35.282971 -119.361555 100 1989ft 51kts
21-Jan-22 22:30 35.286135 -119.338474 92 2348ft 117kts
21-Jan-22 22:31 35.283700 -119.295834 86 2340ft 128kts
21-Jan-22 22:32 35.291588 -119.254046 66 2340ft 125kts
21-Jan-22 22:33 35.304504 -119.214296 62 2340ft 125kts
21-Jan-22 22:34 35.319572 -119.176145 61 2336ft 117kts
21-Jan-22 22:35 35.332217 -119.143679 61 2336ft 100kts
21-Jan-22 22:36 35.343024 -119.115518 61 2337ft 81kts
21-Jan-22 22:37 35.344689 -119.089704 95 2338ft 78kts
21-Jan-22 22:38 35.340337 -119.064049 91 2339ft 75kts
21-Jan-22 22:39 35.341157 -119.035022 74 2341ft 95kts
21-Jan-22 22:40 35.347325 -119.003092 67 2338ft 94kts
21-Jan-22 22:41 35.360652 -118.976591 43 2336ft 90kts
21-Jan-22 22:42 35.378785 -118.990505 310 2335ft 72kts
21-Jan-22 22:43 35.390383 -119.004865 334 2104ft 75kts
21-Jan-22 22:44 35.408093 -119.025218 321 1067ft 88kts
21-Jan-22 22:45 35.424190 -119.044785 325 671ft 74kts
21-Jan-22 22:46 35.436114 -119.058383 12 490ft 16kts
21-Jan-22 22:47 35.435761 -119.055432 49 495ft 7kts
21-Jan-22 22:48 35.436565 -119.055341 340 498ft 0kts
21-Jan-22 22:49 35.437002 -119.055391 2 499ft 0kts

Navigation Log

Ident Type
Flight plan parsing failed, navigation log unavailable